sensor_id;sensor_type;location;lat;lon;timestamp;P1;durP1;ratioP1;P2;durP2;ratioP2
13343;SDS011;6741;48.964;9.406;2023-10-09T00:01:50;7.63;;;5.07;;
13343;SDS011;6741;48.964;9.406;2023-10-09T00:04:17;8.97;;;5.47;;
13343;SDS011;6741;48.964;9.406;2023-10-09T00:06:45;9.80;;;5.77;;
13343;SDS011;6741;48.964;9.406;2023-10-09T00:09:13;9.23;;;5.83;;
13343;SDS011;6741;48.964;9.406;2023-10-09T00:11:55;11.27;;;6.30;;
13343;SDS011;6741;48.964;9.406;2023-10-09T00:14:25;7.77;;;5.60;;
13343;SDS011;6741;48.964;9.406;2023-10-09T00:16:55;11.57;;;5.63;;
13343;SDS011;6741;48.964;9.406;2023-10-09T00:19:30;10.87;;;5.47;;
13343;SDS011;6741;48.964;9.406;2023-10-09T00:21:58;11.67;;;7.17;;
13343;SDS011;6741;48.964;9.406;2023-10-09T00:24:31;12.37;;;5.63;;
13343;SDS011;6741;48.964;9.406;2023-10-09T00:27:00;8.67;;;5.60;;
13343;SDS011;6741;48.964;9.406;2023-10-09T00:29:37;8.93;;;5.40;;
13343;SDS011;6741;48.964;9.406;2023-10-09T00:32:10;8.17;;;5.53;;
13343;SDS011;6741;48.964;9.406;2023-10-09T00:34:40;8.17;;;5.57;;
13343;SDS011;6741;48.964;9.406;2023-10-09T00:37:08;8.77;;;4.47;;
13343;SDS011;6741;48.964;9.406;2023-10-09T00:39:38;9.60;;;5.47;;
13343;SDS011;6741;48.964;9.406;2023-10-09T00:42:10;12.57;;;5.43;;
13343;SDS011;6741;48.964;9.406;2023-10-09T00:44:52;7.83;;;5.30;;
13343;SDS011;6741;48.964;9.406;2023-10-09T00:47:20;9.93;;;5.87;;
13343;SDS011;6741;48.964;9.406;2023-10-09T00:49:49;7.70;;;5.50;;
13343;SDS011;6741;48.964;9.406;2023-10-09T00:52:23;8.17;;;5.57;;
13343;SDS011;6741;48.964;9.406;2023-10-09T00:54:57;9.90;;;6.07;;
13343;SDS011;6741;48.964;9.406;2023-10-09T00:57:31;8.23;;;5.93;;
13343;SDS011;6741;48.964;9.406;2023-10-09T01:00:06;8.27;;;5.67;;
13343;SDS011;6741;48.964;9.406;2023-10-09T01:02:48;8.70;;;5.77;;
13343;SDS011;6741;48.964;9.406;2023-10-09T01:05:35;10.00;;;6.80;;
13343;SDS011;6741;48.964;9.406;2023-10-09T01:08:03;8.27;;;5.33;;
13343;SDS011;6741;48.964;9.406;2023-10-09T01:10:44;11.67;;;5.97;;
13343;SDS011;6741;48.964;9.406;2023-10-09T01:13:17;10.57;;;5.63;;
13343;SDS011;6741;48.964;9.406;2023-10-09T01:15:44;8.70;;;5.50;;
13343;SDS011;6741;48.964;9.406;2023-10-09T01:18:13;9.27;;;5.63;;
13343;SDS011;6741;48.964;9.406;2023-10-09T01:20:41;6.53;;;5.27;;
13343;SDS011;6741;48.964;9.406;2023-10-09T01:23:12;8.30;;;5.77;;
13343;SDS011;6741;48.964;9.406;2023-10-09T01:25:38;10.63;;;5.90;;
13343;SDS011;6741;48.964;9.406;2023-10-09T01:28:11;7.73;;;5.60;;
13343;SDS011;6741;48.964;9.406;2023-10-09T01:30:40;11.27;;;5.63;;
13343;SDS011;6741;48.964;9.406;2023-10-09T01:33:08;9.57;;;5.53;;
13343;SDS011;6741;48.964;9.406;2023-10-09T01:35:49;8.43;;;5.50;;
13343;SDS011;6741;48.964;9.406;2023-10-09T01:38:22;9.23;;;5.90;;
13343;SDS011;6741;48.964;9.406;2023-10-09T01:40:58;10.83;;;6.13;;
13343;SDS011;6741;48.964;9.406;2023-10-09T01:43:32;8.57;;;5.70;;
13343;SDS011;6741;48.964;9.406;2023-10-09T01:46:00;7.80;;;5.40;;
13343;SDS011;6741;48.964;9.406;2023-10-09T01:48:29;7.40;;;5.03;;
13343;SDS011;6741;48.964;9.406;2023-10-09T01:51:01;9.77;;;5.80;;
13343;SDS011;6741;48.964;9.406;2023-10-09T01:53:31;6.70;;;5.37;;
13343;SDS011;6741;48.964;9.406;2023-10-09T01:56:09;8.37;;;5.23;;
13343;SDS011;6741;48.964;9.406;2023-10-09T01:58:40;9.13;;;5.33;;
13343;SDS011;6741;48.964;9.406;2023-10-09T02:01:08;7.60;;;5.30;;
13343;SDS011;6741;48.964;9.406;2023-10-09T02:03:35;8.37;;;5.60;;
13343;SDS011;6741;48.964;9.406;2023-10-09T02:06:03;9.83;;;5.23;;
13343;SDS011;6741;48.964;9.406;2023-10-09T02:08:50;7.50;;;4.67;;
13343;SDS011;6741;48.964;9.406;2023-10-09T02:11:18;7.27;;;5.37;;
13343;SDS011;6741;48.964;9.406;2023-10-09T02:13:50;8.77;;;5.23;;
13343;SDS011;6741;48.964;9.406;2023-10-09T02:16:27;6.57;;;4.40;;
13343;SDS011;6741;48.964;9.406;2023-10-09T02:18:54;8.00;;;4.93;;
13343;SDS011;6741;48.964;9.406;2023-10-09T02:21:24;7.07;;;4.47;;
13343;SDS011;6741;48.964;9.406;2023-10-09T02:24:00;7.83;;;4.60;;
13343;SDS011;6741;48.964;9.406;2023-10-09T02:26:31;7.40;;;4.83;;
13343;SDS011;6741;48.964;9.406;2023-10-09T02:29:19;7.87;;;4.50;;
13343;SDS011;6741;48.964;9.406;2023-10-09T02:31:49;7.30;;;4.70;;
13343;SDS011;6741;48.964;9.406;2023-10-09T02:34:19;5.53;;;4.40;;
13343;SDS011;6741;48.964;9.406;2023-10-09T02:36:47;8.67;;;4.63;;
13343;SDS011;6741;48.964;9.406;2023-10-09T02:39:23;6.30;;;4.47;;
13343;SDS011;6741;48.964;9.406;2023-10-09T02:41:51;8.27;;;4.77;;
13343;SDS011;6741;48.964;9.406;2023-10-09T02:44:25;6.03;;;4.17;;
13343;SDS011;6741;48.964;9.406;2023-10-09T02:46:54;7.03;;;4.80;;
13343;SDS011;6741;48.964;9.406;2023-10-09T02:49:23;8.03;;;4.90;;
13343;SDS011;6741;48.964;9.406;2023-10-09T02:51:51;7.57;;;4.60;;
13343;SDS011;6741;48.964;9.406;2023-10-09T02:54:19;7.13;;;4.83;;
13343;SDS011;6741;48.964;9.406;2023-10-09T02:57:02;5.50;;;4.67;;
13343;SDS011;6741;48.964;9.406;2023-10-09T02:59:32;6.40;;;4.57;;
13343;SDS011;6741;48.964;9.406;2023-10-09T03:01:59;8.17;;;5.03;;
13343;SDS011;6741;48.964;9.406;2023-10-09T03:04:26;10.70;;;4.53;;
13343;SDS011;6741;48.964;9.406;2023-10-09T03:06:56;6.13;;;4.70;;
13343;SDS011;6741;48.964;9.406;2023-10-09T03:09:23;10.27;;;5.27;;
13343;SDS011;6741;48.964;9.406;2023-10-09T03:11:53;9.43;;;5.17;;
13343;SDS011;6741;48.964;9.406;2023-10-09T03:14:28;9.07;;;5.13;;
13343;SDS011;6741;48.964;9.406;2023-10-09T03:16:55;9.23;;;5.77;;
13343;SDS011;6741;48.964;9.406;2023-10-09T03:19:23;7.40;;;4.80;;
13343;SDS011;6741;48.964;9.406;2023-10-09T03:21:51;9.37;;;5.13;;
13343;SDS011;6741;48.964;9.406;2023-10-09T03:24:18;8.20;;;5.30;;
13343;SDS011;6741;48.964;9.406;2023-10-09T03:26:47;8.10;;;4.97;;
13343;SDS011;6741;48.964;9.406;2023-10-09T03:29:17;8.93;;;4.90;;
13343;SDS011;6741;48.964;9.406;2023-10-09T03:31:46;6.40;;;4.10;;
13343;SDS011;6741;48.964;9.406;2023-10-09T03:34:15;6.87;;;5.07;;
13343;SDS011;6741;48.964;9.406;2023-10-09T03:36:43;9.47;;;4.93;;
13343;SDS011;6741;48.964;9.406;2023-10-09T03:39:10;6.17;;;4.43;;
13343;SDS011;6741;48.964;9.406;2023-10-09T03:41:49;8.13;;;4.93;;
13343;SDS011;6741;48.964;9.406;2023-10-09T03:44:16;5.47;;;4.27;;
13343;SDS011;6741;48.964;9.406;2023-10-09T03:46:45;6.37;;;4.43;;
13343;SDS011;6741;48.964;9.406;2023-10-09T03:49:12;7.27;;;4.80;;
13343;SDS011;6741;48.964;9.406;2023-10-09T03:51:45;8.33;;;5.20;;
13343;SDS011;6741;48.964;9.406;2023-10-09T03:54:12;6.53;;;5.40;;
13343;SDS011;6741;48.964;9.406;2023-10-09T03:56:40;6.90;;;4.67;;
13343;SDS011;6741;48.964;9.406;2023-10-09T03:59:07;6.27;;;4.73;;
13343;SDS011;6741;48.964;9.406;2023-10-09T04:01:36;5.77;;;4.77;;
13343;SDS011;6741;48.964;9.406;2023-10-09T04:04:05;6.10;;;4.60;;
13343;SDS011;6741;48.964;9.406;2023-10-09T04:06:35;9.43;;;5.07;;
13343;SDS011;6741;48.964;9.406;2023-10-09T04:09:03;10.73;;;5.63;;
13343;SDS011;6741;48.964;9.406;2023-10-09T04:11:52;5.63;;;4.63;;
13343;SDS011;6741;48.964;9.406;2023-10-09T04:14:38;8.80;;;5.10;;
13343;SDS011;6741;48.964;9.406;2023-10-09T04:17:14;7.87;;;5.20;;
13343;SDS011;6741;48.964;9.406;2023-10-09T04:19:56;6.40;;;5.20;;
13343;SDS011;6741;48.964;9.406;2023-10-09T04:22:37;8.30;;;5.00;;
13343;SDS011;6741;48.964;9.406;2023-10-09T04:25:07;7.17;;;5.10;;
13343;SDS011;6741;48.964;9.406;2023-10-09T04:27:40;8.13;;;5.70;;
13343;SDS011;6741;48.964;9.406;2023-10-09T04:30:09;7.27;;;5.10;;
13343;SDS011;6741;48.964;9.406;2023-10-09T04:32:40;6.20;;;4.77;;
13343;SDS011;6741;48.964;9.406;2023-10-09T04:35:11;8.50;;;5.40;;
13343;SDS011;6741;48.964;9.406;2023-10-09T04:37:48;9.37;;;5.40;;
13343;SDS011;6741;48.964;9.406;2023-10-09T04:40:25;10.33;;;5.03;;
13343;SDS011;6741;48.964;9.406;2023-10-09T04:43:14;10.23;;;5.30;;
13343;SDS011;6741;48.964;9.406;2023-10-09T04:45:46;7.10;;;5.07;;
13343;SDS011;6741;48.964;9.406;2023-10-09T04:48:30;10.37;;;5.10;;
13343;SDS011;6741;48.964;9.406;2023-10-09T04:51:04;12.40;;;5.10;;
13343;SDS011;6741;48.964;9.406;2023-10-09T04:53:51;7.00;;;5.30;;
13343;SDS011;6741;48.964;9.406;2023-10-09T04:56:37;11.23;;;5.37;;
13343;SDS011;6741;48.964;9.406;2023-10-09T04:59:17;12.60;;;5.63;;
13343;SDS011;6741;48.964;9.406;2023-10-09T05:01:48;9.73;;;5.23;;
13343;SDS011;6741;48.964;9.406;2023-10-09T05:04:24;10.07;;;5.50;;
13343;SDS011;6741;48.964;9.406;2023-10-09T05:07:06;8.53;;;5.60;;
13343;SDS011;6741;48.964;9.406;2023-10-09T05:09:47;8.37;;;5.33;;
13343;SDS011;6741;48.964;9.406;2023-10-09T05:12:31;10.90;;;5.37;;
13343;SDS011;6741;48.964;9.406;2023-10-09T05:14:57;9.67;;;5.03;;
13343;SDS011;6741;48.964;9.406;2023-10-09T05:17:33;10.00;;;4.97;;
13343;SDS011;6741;48.964;9.406;2023-10-09T05:20:04;12.00;;;5.47;;
13343;SDS011;6741;48.964;9.406;2023-10-09T05:22:50;11.87;;;5.20;;
13343;SDS011;6741;48.964;9.406;2023-10-09T05:25:24;8.57;;;6.00;;
13343;SDS011;6741;48.964;9.406;2023-10-09T05:28:18;8.57;;;5.27;;
13343;SDS011;6741;48.964;9.406;2023-10-09T05:30:56;11.60;;;5.37;;
13343;SDS011;6741;48.964;9.406;2023-10-09T05:33:31;11.90;;;5.30;;
13343;SDS011;6741;48.964;9.406;2023-10-09T05:36:02;9.77;;;5.40;;
13343;SDS011;6741;48.964;9.406;2023-10-09T05:38:56;9.37;;;5.87;;
13343;SDS011;6741;48.964;9.406;2023-10-09T05:41:42;8.97;;;6.33;;
13343;SDS011;6741;48.964;9.406;2023-10-09T05:44:20;10.30;;;5.13;;
13343;SDS011;6741;48.964;9.406;2023-10-09T05:47:04;9.80;;;5.90;;
13343;SDS011;6741;48.964;9.406;2023-10-09T05:50:00;9.70;;;5.57;;
13343;SDS011;6741;48.964;9.406;2023-10-09T05:52:41;11.60;;;4.90;;
13343;SDS011;6741;48.964;9.406;2023-10-09T05:55:30;10.30;;;5.03;;
13343;SDS011;6741;48.964;9.406;2023-10-09T05:58:20;11.70;;;5.97;;
13343;SDS011;6741;48.964;9.406;2023-10-09T06:01:06;9.20;;;5.60;;
13343;SDS011;6741;48.964;9.406;2023-10-09T06:03:50;11.20;;;6.17;;
13343;SDS011;6741;48.964;9.406;2023-10-09T06:06:29;9.37;;;5.33;;
13343;SDS011;6741;48.964;9.406;2023-10-09T06:08:59;8.67;;;5.33;;
13343;SDS011;6741;48.964;9.406;2023-10-09T06:11:45;8.70;;;4.63;;
13343;SDS011;6741;48.964;9.406;2023-10-09T06:14:15;8.17;;;4.87;;
13343;SDS011;6741;48.964;9.406;2023-10-09T06:16:51;8.30;;;5.23;;
13343;SDS011;6741;48.964;9.406;2023-10-09T06:19:48;9.03;;;5.13;;
13343;SDS011;6741;48.964;9.406;2023-10-09T06:22:14;7.37;;;5.40;;
13343;SDS011;6741;48.964;9.406;2023-10-09T06:25:01;11.43;;;5.40;;
13343;SDS011;6741;48.964;9.406;2023-10-09T06:27:34;7.43;;;5.17;;
13343;SDS011;6741;48.964;9.406;2023-10-09T06:30:22;12.70;;;5.53;;
13343;SDS011;6741;48.964;9.406;2023-10-09T06:32:55;8.97;;;5.10;;
13343;SDS011;6741;48.964;9.406;2023-10-09T06:35:33;12.00;;;5.90;;
13343;SDS011;6741;48.964;9.406;2023-10-09T06:38:01;8.17;;;6.03;;
13343;SDS011;6741;48.964;9.406;2023-10-09T06:40:47;9.03;;;4.97;;
13343;SDS011;6741;48.964;9.406;2023-10-09T06:43:32;12.03;;;5.20;;
13343;SDS011;6741;48.964;9.406;2023-10-09T06:46:02;9.73;;;5.30;;
13343;SDS011;6741;48.964;9.406;2023-10-09T06:48:44;8.43;;;5.17;;
13343;SDS011;6741;48.964;9.406;2023-10-09T06:51:11;11.40;;;5.67;;
13343;SDS011;6741;48.964;9.406;2023-10-09T06:53:41;9.10;;;5.73;;
13343;SDS011;6741;48.964;9.406;2023-10-09T06:56:28;12.20;;;5.10;;
13343;SDS011;6741;48.964;9.406;2023-10-09T06:59:16;12.30;;;4.87;;
13343;SDS011;6741;48.964;9.406;2023-10-09T07:01:46;8.50;;;5.70;;
13343;SDS011;6741;48.964;9.406;2023-10-09T07:04:35;9.30;;;5.30;;
13343;SDS011;6741;48.964;9.406;2023-10-09T07:07:13;9.67;;;5.27;;
13343;SDS011;6741;48.964;9.406;2023-10-09T07:09:41;8.37;;;5.13;;
13343;SDS011;6741;48.964;9.406;2023-10-09T07:12:07;12.57;;;5.30;;
13343;SDS011;6741;48.964;9.406;2023-10-09T07:14:39;10.60;;;5.57;;
13343;SDS011;6741;48.964;9.406;2023-10-09T07:17:26;11.53;;;5.80;;
13343;SDS011;6741;48.964;9.406;2023-10-09T07:20:11;10.53;;;5.10;;
13343;SDS011;6741;48.964;9.406;2023-10-09T07:23:01;9.60;;;5.17;;
13343;SDS011;6741;48.964;9.406;2023-10-09T07:25:40;8.87;;;5.30;;
13343;SDS011;6741;48.964;9.406;2023-10-09T07:28:08;6.63;;;5.53;;
13343;SDS011;6741;48.964;9.406;2023-10-09T07:30:52;8.07;;;4.83;;
13343;SDS011;6741;48.964;9.406;2023-10-09T07:33:23;8.90;;;5.10;;
13343;SDS011;6741;48.964;9.406;2023-10-09T07:36:01;6.63;;;5.50;;
13343;SDS011;6741;48.964;9.406;2023-10-09T07:38:33;7.53;;;4.53;;
13343;SDS011;6741;48.964;9.406;2023-10-09T07:41:02;11.20;;;5.37;;
13343;SDS011;6741;48.964;9.406;2023-10-09T07:43:43;12.30;;;5.80;;
13343;SDS011;6741;48.964;9.406;2023-10-09T07:46:12;12.13;;;5.40;;
13343;SDS011;6741;48.964;9.406;2023-10-09T07:49:00;9.77;;;6.53;;
13343;SDS011;6741;48.964;9.406;2023-10-09T07:51:35;13.87;;;8.37;;
13343;SDS011;6741;48.964;9.406;2023-10-09T07:54:03;11.53;;;6.10;;
13343;SDS011;6741;48.964;9.406;2023-10-09T07:56:33;9.47;;;5.40;;
13343;SDS011;6741;48.964;9.406;2023-10-09T07:59:03;7.90;;;5.37;;
13343;SDS011;6741;48.964;9.406;2023-10-09T08:01:36;11.67;;;6.43;;
13343;SDS011;6741;48.964;9.406;2023-10-09T08:04:03;9.17;;;6.10;;
13343;SDS011;6741;48.964;9.406;2023-10-09T08:06:37;5.87;;;4.87;;
13343;SDS011;6741;48.964;9.406;2023-10-09T08:09:04;8.27;;;5.03;;
13343;SDS011;6741;48.964;9.406;2023-10-09T08:11:45;9.73;;;5.67;;
13343;SDS011;6741;48.964;9.406;2023-10-09T08:14:30;12.33;;;5.27;;
13343;SDS011;6741;48.964;9.406;2023-10-09T08:17:10;13.70;;;5.73;;
13343;SDS011;6741;48.964;9.406;2023-10-09T08:19:39;8.30;;;4.77;;
13343;SDS011;6741;48.964;9.406;2023-10-09T08:22:21;10.85;;;4.78;;
13343;SDS011;6741;48.964;9.406;2023-10-09T08:25:08;6.40;;;4.60;;
13343;SDS011;6741;48.964;9.406;2023-10-09T08:27:51;12.25;;;4.63;;
13343;SDS011;6741;48.964;9.406;2023-10-09T08:30:22;8.77;;;4.97;;
13343;SDS011;6741;48.964;9.406;2023-10-09T08:33:06;8.98;;;4.80;;
13343;SDS011;6741;48.964;9.406;2023-10-09T08:35:50;11.95;;;4.75;;
13343;SDS011;6741;48.964;9.406;2023-10-09T08:38:22;10.57;;;5.32;;
13343;SDS011;6741;48.964;9.406;2023-10-09T08:40:49;10.68;;;4.85;;
13343;SDS011;6741;48.964;9.406;2023-10-09T08:43:20;7.97;;;5.10;;
13343;SDS011;6741;48.964;9.406;2023-10-09T08:45:48;8.38;;;5.15;;
13343;SDS011;6741;48.964;9.406;2023-10-09T08:48:18;8.43;;;4.57;;
13343;SDS011;6741;48.964;9.406;2023-10-09T08:50:47;8.90;;;4.68;;
13343;SDS011;6741;48.964;9.406;2023-10-09T08:53:15;9.07;;;4.50;;
13343;SDS011;6741;48.964;9.406;2023-10-09T08:55:44;10.95;;;5.20;;
13343;SDS011;6741;48.964;9.406;2023-10-09T08:58:11;9.10;;;5.22;;
13343;SDS011;6741;48.964;9.406;2023-10-09T09:00:43;8.57;;;5.05;;
13343;SDS011;6741;48.964;9.406;2023-10-09T09:03:11;6.88;;;4.38;;
13343;SDS011;6741;48.964;9.406;2023-10-09T09:05:40;9.60;;;4.57;;
13343;SDS011;6741;48.964;9.406;2023-10-09T09:08:20;10.23;;;5.22;;
13343;SDS011;6741;48.964;9.406;2023-10-09T09:10:52;10.98;;;4.68;;
13343;SDS011;6741;48.964;9.406;2023-10-09T09:13:30;11.05;;;5.30;;
13343;SDS011;6741;48.964;9.406;2023-10-09T09:15:59;7.53;;;4.47;;
13343;SDS011;6741;48.964;9.406;2023-10-09T09:18:27;11.07;;;5.10;;
13343;SDS011;6741;48.964;9.406;2023-10-09T09:21:11;9.07;;;4.85;;
13343;SDS011;6741;48.964;9.406;2023-10-09T09:23:52;9.00;;;4.32;;
13343;SDS011;6741;48.964;9.406;2023-10-09T09:26:30;6.90;;;4.88;;
13343;SDS011;6741;48.964;9.406;2023-10-09T09:29:02;10.05;;;5.57;;
13343;SDS011;6741;48.964;9.406;2023-10-09T09:31:33;9.60;;;5.05;;
13343;SDS011;6741;48.964;9.406;2023-10-09T09:34:04;9.93;;;5.38;;
13343;SDS011;6741;48.964;9.406;2023-10-09T09:36:49;8.55;;;4.45;;
13343;SDS011;6741;48.964;9.406;2023-10-09T09:39:20;10.25;;;4.72;;
13343;SDS011;6741;48.964;9.406;2023-10-09T09:41:56;9.30;;;4.72;;
13343;SDS011;6741;48.964;9.406;2023-10-09T09:44:30;10.10;;;4.40;;
13343;SDS011;6741;48.964;9.406;2023-10-09T09:46:59;11.70;;;4.22;;
13343;SDS011;6741;48.964;9.406;2023-10-09T09:49:27;11.60;;;4.40;;
13343;SDS011;6741;48.964;9.406;2023-10-09T09:51:57;12.20;;;4.60;;
13343;SDS011;6741;48.964;9.406;2023-10-09T09:54:35;11.15;;;4.90;;
13343;SDS011;6741;48.964;9.406;2023-10-09T09:57:04;15.95;;;5.50;;
13343;SDS011;6741;48.964;9.406;2023-10-09T09:59:37;18.98;;;5.85;;
13343;SDS011;6741;48.964;9.406;2023-10-09T10:02:16;11.63;;;5.05;;
13343;SDS011;6741;48.964;9.406;2023-10-09T10:04:46;16.05;;;5.22;;
13343;SDS011;6741;48.964;9.406;2023-10-09T10:07:17;28.58;;;6.10;;
13343;SDS011;6741;48.964;9.406;2023-10-09T10:09:46;22.00;;;4.70;;
13343;SDS011;6741;48.964;9.406;2023-10-09T10:12:48;25.30;;;5.30;;
13343;SDS011;6741;48.964;9.406;2023-10-09T10:18:54;12.57;;;3.85;;
13343;SDS011;6741;48.964;9.406;2023-10-09T10:21:32;9.88;;;2.85;;
13343;SDS011;6741;48.964;9.406;2023-10-09T10:24:04;7.88;;;3.00;;
13343;SDS011;6741;48.964;9.406;2023-10-09T10:29:54;10.52;;;2.80;;
13343;SDS011;6741;48.964;9.406;2023-10-09T10:32:58;7.97;;;3.40;;
13343;SDS011;6741;48.964;9.406;2023-10-09T10:35:34;16.10;;;4.10;;
13343;SDS011;6741;48.964;9.406;2023-10-09T10:38:25;10.40;;;3.60;;
13343;SDS011;6741;48.964;9.406;2023-10-09T10:41:11;9.27;;;3.15;;
13343;SDS011;6741;48.964;9.406;2023-10-09T10:43:41;11.23;;;3.50;;
13343;SDS011;6741;48.964;9.406;2023-10-09T10:46:23;11.10;;;3.55;;
13343;SDS011;6741;48.964;9.406;2023-10-09T10:48:49;11.48;;;3.08;;
13343;SDS011;6741;48.964;9.406;2023-10-09T10:51:24;10.85;;;2.72;;
13343;SDS011;6741;48.964;9.406;2023-10-09T10:54:00;7.53;;;3.25;;
13343;SDS011;6741;48.964;9.406;2023-10-09T10:56:49;15.00;;;3.50;;
13343;SDS011;6741;48.964;9.406;2023-10-09T10:59:16;8.02;;;3.22;;
13343;SDS011;6741;48.964;9.406;2023-10-09T11:01:52;8.18;;;3.15;;
13343;SDS011;6741;48.964;9.406;2023-10-09T11:04:19;9.80;;;3.83;;
13343;SDS011;6741;48.964;9.406;2023-10-09T11:07:03;5.15;;;2.97;;
13343;SDS011;6741;48.964;9.406;2023-10-09T11:09:42;10.82;;;3.85;;
13343;SDS011;6741;48.964;9.406;2023-10-09T11:12:23;7.15;;;3.33;;
13343;SDS011;6741;48.964;9.406;2023-10-09T11:14:50;9.65;;;3.00;;
13343;SDS011;6741;48.964;9.406;2023-10-09T11:17:33;7.25;;;3.67;;
13343;SDS011;6741;48.964;9.406;2023-10-09T11:20:01;9.13;;;2.95;;
13343;SDS011;6741;48.964;9.406;2023-10-09T11:22:48;8.57;;;2.95;;
13343;SDS011;6741;48.964;9.406;2023-10-09T11:25:41;11.50;;;3.40;;
13343;SDS011;6741;48.964;9.406;2023-10-09T11:28:16;12.98;;;3.67;;
13343;SDS011;6741;48.964;9.406;2023-10-09T11:30:54;9.05;;;2.80;;
13343;SDS011;6741;48.964;9.406;2023-10-09T11:33:22;11.48;;;3.03;;
13343;SDS011;6741;48.964;9.406;2023-10-09T11:35:55;11.45;;;3.10;;
13343;SDS011;6741;48.964;9.406;2023-10-09T11:38:22;10.02;;;3.28;;
13343;SDS011;6741;48.964;9.406;2023-10-09T11:40:51;9.68;;;3.38;;
13343;SDS011;6741;48.964;9.406;2023-10-09T11:43:46;6.80;;;2.70;;
13343;SDS011;6741;48.964;9.406;2023-10-09T11:46:22;10.60;;;3.47;;
13343;SDS011;6741;48.964;9.406;2023-10-09T11:49:14;8.10;;;3.88;;
13343;SDS011;6741;48.964;9.406;2023-10-09T11:52:06;9.38;;;3.40;;
13343;SDS011;6741;48.964;9.406;2023-10-09T11:54:50;8.02;;;3.08;;
13343;SDS011;6741;48.964;9.406;2023-10-09T11:57:21;9.80;;;3.33;;
13343;SDS011;6741;48.964;9.406;2023-10-09T11:59:55;9.27;;;3.30;;
13343;SDS011;6741;48.964;9.406;2023-10-09T12:02:23;8.95;;;3.83;;
13343;SDS011;6741;48.964;9.406;2023-10-09T12:04:52;7.80;;;3.25;;
13343;SDS011;6741;48.964;9.406;2023-10-09T12:07:21;12.05;;;3.55;;
13343;SDS011;6741;48.964;9.406;2023-10-09T12:09:50;15.55;;;3.30;;
13343;SDS011;6741;48.964;9.406;2023-10-09T12:12:21;12.73;;;3.85;;
13343;SDS011;6741;48.964;9.406;2023-10-09T12:14:52;6.45;;;3.22;;
13343;SDS011;6741;48.964;9.406;2023-10-09T12:17:19;9.15;;;3.17;;
13343;SDS011;6741;48.964;9.406;2023-10-09T12:19:49;6.13;;;2.88;;
13343;SDS011;6741;48.964;9.406;2023-10-09T12:22:21;7.10;;;2.83;;
13343;SDS011;6741;48.964;9.406;2023-10-09T12:24:52;10.05;;;3.70;;
13343;SDS011;6741;48.964;9.406;2023-10-09T12:27:19;6.82;;;3.15;;
13343;SDS011;6741;48.964;9.406;2023-10-09T12:29:47;6.97;;;2.95;;
13343;SDS011;6741;48.964;9.406;2023-10-09T12:32:15;8.13;;;3.45;;
13343;SDS011;6741;48.964;9.406;2023-10-09T12:34:45;10.50;;;3.88;;
13343;SDS011;6741;48.964;9.406;2023-10-09T12:37:16;10.57;;;4.32;;
13343;SDS011;6741;48.964;9.406;2023-10-09T12:39:46;12.13;;;3.45;;
13343;SDS011;6741;48.964;9.406;2023-10-09T12:42:13;7.95;;;2.97;;
13343;SDS011;6741;48.964;9.406;2023-10-09T12:44:42;9.38;;;3.30;;
13343;SDS011;6741;48.964;9.406;2023-10-09T12:47:10;7.55;;;3.83;;
13343;SDS011;6741;48.964;9.406;2023-10-09T12:49:40;11.60;;;3.88;;
13343;SDS011;6741;48.964;9.406;2023-10-09T12:52:07;12.93;;;3.92;;
13343;SDS011;6741;48.964;9.406;2023-10-09T12:54:42;10.43;;;4.05;;
13343;SDS011;6741;48.964;9.406;2023-10-09T12:57:12;6.82;;;3.03;;
13343;SDS011;6741;48.964;9.406;2023-10-09T12:59:40;9.88;;;4.00;;
13343;SDS011;6741;48.964;9.406;2023-10-09T13:02:10;10.38;;;3.50;;
13343;SDS011;6741;48.964;9.406;2023-10-09T13:04:38;7.72;;;3.00;;
13343;SDS011;6741;48.964;9.406;2023-10-09T13:07:07;7.72;;;3.60;;
13343;SDS011;6741;48.964;9.406;2023-10-09T13:09:34;11.35;;;3.28;;
13343;SDS011;6741;48.964;9.406;2023-10-09T13:12:09;10.15;;;3.40;;
13343;SDS011;6741;48.964;9.406;2023-10-09T13:14:43;10.60;;;3.55;;
13343;SDS011;6741;48.964;9.406;2023-10-09T13:17:10;8.07;;;3.53;;
13343;SDS011;6741;48.964;9.406;2023-10-09T13:19:38;13.75;;;4.43;;
13343;SDS011;6741;48.964;9.406;2023-10-09T13:22:05;12.52;;;3.40;;
13343;SDS011;6741;48.964;9.406;2023-10-09T13:24:38;10.27;;;3.30;;
13343;SDS011;6741;48.964;9.406;2023-10-09T13:27:05;12.73;;;3.95;;
13343;SDS011;6741;48.964;9.406;2023-10-09T13:29:36;9.65;;;3.38;;
13343;SDS011;6741;48.964;9.406;2023-10-09T13:32:05;9.95;;;3.20;;
13343;SDS011;6741;48.964;9.406;2023-10-09T13:34:38;10.80;;;4.32;;
13343;SDS011;6741;48.964;9.406;2023-10-09T13:37:09;8.63;;;4.13;;
13343;SDS011;6741;48.964;9.406;2023-10-09T13:39:39;6.20;;;3.20;;
13343;SDS011;6741;48.964;9.406;2023-10-09T13:42:17;8.55;;;3.53;;
13343;SDS011;6741;48.964;9.406;2023-10-09T13:44:45;7.45;;;3.58;;
13343;SDS011;6741;48.964;9.406;2023-10-09T13:47:14;5.95;;;3.13;;
13343;SDS011;6741;48.964;9.406;2023-10-09T13:49:45;8.30;;;3.63;;
13343;SDS011;6741;48.964;9.406;2023-10-09T13:52:15;7.80;;;3.70;;
13343;SDS011;6741;48.964;9.406;2023-10-09T13:54:43;10.32;;;3.58;;
13343;SDS011;6741;48.964;9.406;2023-10-09T13:57:13;7.47;;;3.30;;
13343;SDS011;6741;48.964;9.406;2023-10-09T13:59:40;8.70;;;3.40;;
13343;SDS011;6741;48.964;9.406;2023-10-09T14:02:15;10.82;;;4.05;;
13343;SDS011;6741;48.964;9.406;2023-10-09T14:04:46;8.20;;;3.33;;
13343;SDS011;6741;48.964;9.406;2023-10-09T14:07:13;9.02;;;3.90;;
13343;SDS011;6741;48.964;9.406;2023-10-09T14:09:42;8.85;;;4.00;;
13343;SDS011;6741;48.964;9.406;2023-10-09T14:12:20;8.55;;;3.45;;
13343;SDS011;6741;48.964;9.406;2023-10-09T14:14:50;5.82;;;3.33;;
13343;SDS011;6741;48.964;9.406;2023-10-09T14:17:20;8.55;;;3.50;;
13343;SDS011;6741;48.964;9.406;2023-10-09T14:19:50;8.07;;;3.88;;
13343;SDS011;6741;48.964;9.406;2023-10-09T14:22:19;12.23;;;4.47;;
13343;SDS011;6741;48.964;9.406;2023-10-09T14:24:49;8.50;;;3.40;;
13343;SDS011;6741;48.964;9.406;2023-10-09T14:27:20;9.77;;;3.85;;
13343;SDS011;6741;48.964;9.406;2023-10-09T14:29:51;13.55;;;5.47;;
13343;SDS011;6741;48.964;9.406;2023-10-09T14:32:22;15.55;;;5.63;;
13343;SDS011;6741;48.964;9.406;2023-10-09T14:34:53;10.55;;;4.40;;
13343;SDS011;6741;48.964;9.406;2023-10-09T14:37:25;12.75;;;4.93;;
13343;SDS011;6741;48.964;9.406;2023-10-09T14:39:54;8.95;;;5.18;;
13343;SDS011;6741;48.964;9.406;2023-10-09T14:42:23;10.88;;;3.85;;
13343;SDS011;6741;48.964;9.406;2023-10-09T14:44:53;8.82;;;4.18;;
13343;SDS011;6741;48.964;9.406;2023-10-09T14:47:21;8.77;;;4.35;;
13343;SDS011;6741;48.964;9.406;2023-10-09T14:49:48;9.68;;;4.32;;
13343;SDS011;6741;48.964;9.406;2023-10-09T14:52:18;10.27;;;4.57;;
13343;SDS011;6741;48.964;9.406;2023-10-09T14:54:46;11.10;;;4.47;;
13343;SDS011;6741;48.964;9.406;2023-10-09T14:57:15;11.48;;;4.20;;
13343;SDS011;6741;48.964;9.406;2023-10-09T14:59:43;15.32;;;4.60;;
13343;SDS011;6741;48.964;9.406;2023-10-09T15:02:11;17.38;;;5.15;;
13343;SDS011;6741;48.964;9.406;2023-10-09T15:04:39;10.70;;;4.20;;
13343;SDS011;6741;48.964;9.406;2023-10-09T15:07:06;18.08;;;6.65;;
13343;SDS011;6741;48.964;9.406;2023-10-09T15:09:33;10.13;;;3.78;;
13343;SDS011;6741;48.964;9.406;2023-10-09T15:12:01;14.02;;;5.57;;
13343;SDS011;6741;48.964;9.406;2023-10-09T15:14:31;20.38;;;6.15;;
13343;SDS011;6741;48.964;9.406;2023-10-09T15:16:58;21.95;;;5.03;;
13343;SDS011;6741;48.964;9.406;2023-10-09T15:19:25;10.07;;;4.07;;
13343;SDS011;6741;48.964;9.406;2023-10-09T15:21:56;13.18;;;4.28;;
13343;SDS011;6741;48.964;9.406;2023-10-09T15:24:24;12.30;;;4.25;;
13343;SDS011;6741;48.964;9.406;2023-10-09T15:26:53;18.63;;;5.75;;
13343;SDS011;6741;48.964;9.406;2023-10-09T15:29:22;10.88;;;4.40;;
13343;SDS011;6741;48.964;9.406;2023-10-09T15:31:53;10.57;;;4.38;;
13343;SDS011;6741;48.964;9.406;2023-10-09T15:34:21;14.88;;;4.63;;
13343;SDS011;6741;48.964;9.406;2023-10-09T15:36:51;12.35;;;4.47;;
13343;SDS011;6741;48.964;9.406;2023-10-09T15:39:19;12.38;;;4.88;;
13343;SDS011;6741;48.964;9.406;2023-10-09T15:41:48;10.85;;;4.65;;